sensor_id;sensor_type;location;lat;lon;timestamp;pressure;altitude;pressure_sealevel;temperature;humidity
4022;BME280;2025;48.260;16.432;2022-07-29T00:00:30;99687.84;;;18.67;100.00
4022;BME280;2025;48.260;16.432;2022-07-29T00:02:57;99691.41;;;18.66;100.00
4022;BME280;2025;48.260;16.432;2022-07-29T00:05:25;99689.66;;;18.65;100.00
4022;BME280;2025;48.260;16.432;2022-07-29T00:07:52;99690.56;;;18.64;100.00
4022;BME280;2025;48.260;16.432;2022-07-29T00:10:19;99696.84;;;18.60;100.00
4022;BME280;2025;48.260;16.432;2022-07-29T00:12:46;99702.28;;;18.54;100.00
4022;BME280;2025;48.260;16.432;2022-07-29T00:15:13;99704.16;;;18.50;100.00
4022;BME280;2025;48.260;16.432;2022-07-29T00:17:40;99700.59;;;18.51;100.00
4022;BME280;2025;48.260;16.432;2022-07-29T00:20:09;99694.38;;;18.52;100.00
4022;BME280;2025;48.260;16.432;2022-07-29T00:22:38;99696.13;;;18.53;100.00
4022;BME280;2025;48.260;16.432;2022-07-29T00:25:06;99691.78;;;18.49;100.00
4022;BME280;2025;48.260;16.432;2022-07-29T00:27:34;99696.34;;;18.44;100.00
4022;BME280;2025;48.260;16.432;2022-07-29T00:30:01;99686.75;;;18.39;100.00
4022;BME280;2025;48.260;16.432;2022-07-29T00:32:28;99687.69;;;18.36;100.00
4022;BME280;2025;48.260;16.432;2022-07-29T00:34:55;99681.53;;;18.36;100.00
4022;BME280;2025;48.260;16.432;2022-07-29T00:37:40;99673.50;;;18.39;100.00
4022;BME280;2025;48.260;16.432;2022-07-29T00:40:08;99682.31;;;18.39;100.00
4022;BME280;2025;48.260;16.432;2022-07-29T00:42:42;99676.97;;;18.41;100.00
4022;BME280;2025;48.260;16.432;2022-07-29T00:45:09;99676.25;;;18.34;100.00
4022;BME280;2025;48.260;16.432;2022-07-29T00:47:36;99675.50;;;18.29;100.00
4022;BME280;2025;48.260;16.432;2022-07-29T00:50:05;99673.75;;;18.28;100.00
4022;BME280;2025;48.260;16.432;2022-07-29T00:52:33;99682.63;;;18.27;100.00
4022;BME280;2025;48.260;16.432;2022-07-29T00:55:02;99675.56;;;18.26;100.00
4022;BME280;2025;48.260;16.432;2022-07-29T00:57:29;99673.91;;;18.22;100.00
4022;BME280;2025;48.260;16.432;2022-07-29T00:59:56;99674.94;;;18.15;100.00
4022;BME280;2025;48.260;16.432;2022-07-29T01:02:23;99675.06;;;18.10;100.00
4022;BME280;2025;48.260;16.432;2022-07-29T01:04:50;99673.34;;;18.08;100.00
4022;BME280;2025;48.260;16.432;2022-07-29T01:07:17;99667.22;;;18.06;100.00
4022;BME280;2025;48.260;16.432;2022-07-29T01:09:45;99671.63;;;18.05;100.00
4022;BME280;2025;48.260;16.432;2022-07-29T01:12:17;99677.00;;;18.02;100.00
4022;BME280;2025;48.260;16.432;2022-07-29T01:14:46;99671.78;;;17.99;100.00
4022;BME280;2025;48.260;16.432;2022-07-29T01:17:19;99669.97;;;18.01;100.00
4022;BME280;2025;48.260;16.432;2022-07-29T01:19:52;99668.22;;;18.00;100.00
4022;BME280;2025;48.260;16.432;2022-07-29T01:22:31;99663.06;;;17.94;100.00
4022;BME280;2025;48.260;16.432;2022-07-29T01:25:10;99675.50;;;17.90;100.00
4022;BME280;2025;48.260;16.432;2022-07-29T01:27:51;99671.22;;;17.85;100.00
4022;BME280;2025;48.260;16.432;2022-07-29T01:30:25;99669.50;;;17.82;100.00
4022;BME280;2025;48.260;16.432;2022-07-29T01:32:56;99671.25;;;17.83;100.00
4022;BME280;2025;48.260;16.432;2022-07-29T01:35:26;99671.31;;;17.80;100.00
4022;BME280;2025;48.260;16.432;2022-07-29T01:37:58;99670.59;;;17.74;100.00
4022;BME280;2025;48.260;16.432;2022-07-29T01:40:33;99664.53;;;17.66;100.00
4022;BME280;2025;48.260;16.432;2022-07-29T01:43:07;99675.31;;;17.58;100.00
4022;BME280;2025;48.260;16.432;2022-07-29T01:45:40;99676.28;;;17.54;100.00
4022;BME280;2025;48.260;16.432;2022-07-29T01:48:12;99678.03;;;17.55;100.00
4022;BME280;2025;48.260;16.432;2022-07-29T01:50:44;99680.63;;;17.56;100.00
4022;BME280;2025;48.260;16.432;2022-07-29T01:53:16;99672.69;;;17.56;100.00
4022;BME280;2025;48.260;16.432;2022-07-29T01:55:48;99683.34;;;17.53;100.00
4022;BME280;2025;48.260;16.432;2022-07-29T01:58:17;99674.56;;;17.51;100.00
4022;BME280;2025;48.260;16.432;2022-07-29T02:00:48;99680.84;;;17.47;100.00
4022;BME280;2025;48.260;16.432;2022-07-29T02:03:17;99676.50;;;17.43;100.00
4022;BME280;2025;48.260;16.432;2022-07-29T02:05:46;99686.22;;;17.43;100.00
4022;BME280;2025;48.260;16.432;2022-07-29T02:08:15;99677.41;;;17.42;100.00
4022;BME280;2025;48.260;16.432;2022-07-29T02:10:45;99674.84;;;17.38;100.00
4022;BME280;2025;48.260;16.432;2022-07-29T02:13:15;99672.25;;;17.35;100.00
4022;BME280;2025;48.260;16.432;2022-07-29T02:15:44;99670.50;;;17.33;100.00
4022;BME280;2025;48.260;16.432;2022-07-29T02:18:16;99668.00;;;17.26;100.00
4022;BME280;2025;48.260;16.432;2022-07-29T02:20:47;99657.47;;;17.23;100.00
4022;BME280;2025;48.260;16.432;2022-07-29T02:23:18;99670.72;;;17.21;100.00
4022;BME280;2025;48.260;16.432;2022-07-29T02:25:48;99665.50;;;17.18;100.00
4022;BME280;2025;48.260;16.432;2022-07-29T02:28:16;99669.03;;;17.17;100.00
4022;BME280;2025;48.260;16.432;2022-07-29T02:30:45;99665.56;;;17.15;100.00
4022;BME280;2025;48.260;16.432;2022-07-29T02:33:15;99668.34;;;17.08;100.00
4022;BME280;2025;48.260;16.432;2022-07-29T02:35:45;99668.63;;;16.94;100.00
4022;BME280;2025;48.260;16.432;2022-07-29T02:38:15;99668.75;;;16.86;100.00
4022;BME280;2025;48.260;16.432;2022-07-29T02:41:01;99666.19;;;16.82;100.00
4022;BME280;2025;48.260;16.432;2022-07-29T02:43:30;99667.16;;;16.78;100.00
4022;BME280;2025;48.260;16.432;2022-07-29T02:46:00;99668.88;;;16.80;100.00
4022;BME280;2025;48.260;16.432;2022-07-29T02:48:34;99673.28;;;16.80;100.00
4022;BME280;2025;48.260;16.432;2022-07-29T02:51:07;99667.09;;;16.81;100.00
4022;BME280;2025;48.260;16.432;2022-07-29T02:53:36;99670.63;;;16.81;100.00
4022;BME280;2025;48.260;16.432;2022-07-29T02:56:08;99655.59;;;16.83;100.00
4022;BME280;2025;48.260;16.432;2022-07-29T02:58:39;99649.41;;;16.83;100.00
4022;BME280;2025;48.260;16.432;2022-07-29T03:01:11;99652.97;;;16.82;100.00
4022;BME280;2025;48.260;16.432;2022-07-29T03:03:42;99656.50;;;16.81;100.00
4022;BME280;2025;48.260;16.432;2022-07-29T03:06:12;99650.31;;;16.82;100.00
4022;BME280;2025;48.260;16.432;2022-07-29T03:08:40;99646.75;;;16.84;100.00
4022;BME280;2025;48.260;16.432;2022-07-29T03:11:08;99655.53;;;16.86;100.00
4022;BME280;2025;48.260;16.432;2022-07-29T03:13:36;99647.63;;;16.85;100.00
4022;BME280;2025;48.260;16.432;2022-07-29T03:16:04;99652.16;;;16.78;100.00
4022;BME280;2025;48.260;16.432;2022-07-29T03:18:32;99655.72;;;16.76;100.00
4022;BME280;2025;48.260;16.432;2022-07-29T03:21:01;99659.25;;;16.75;100.00
4022;BME280;2025;48.260;16.432;2022-07-29T03:23:29;99650.44;;;16.76;100.00
4022;BME280;2025;48.260;16.432;2022-07-29T03:25:56;99657.44;;;16.78;100.00
4022;BME280;2025;48.260;16.432;2022-07-29T03:28:23;99661.03;;;16.74;100.00
4022;BME280;2025;48.260;16.432;2022-07-29T03:30:53;99663.81;;;16.66;100.00
4022;BME280;2025;48.260;16.432;2022-07-29T03:33:20;99649.69;;;16.67;100.00
4022;BME280;2025;48.260;16.432;2022-07-29T03:35:47;99638.16;;;16.72;100.00
4022;BME280;2025;48.260;16.432;2022-07-29T03:38:16;99640.66;;;16.79;100.00
4022;BME280;2025;48.260;16.432;2022-07-29T03:40:48;99636.25;;;16.80;100.00
4022;BME280;2025;48.260;16.432;2022-07-29T03:43:17;99640.72;;;16.76;100.00
4022;BME280;2025;48.260;16.432;2022-07-29T03:45:47;99643.38;;;16.76;100.00
4022;BME280;2025;48.260;16.432;2022-07-29T03:48:18;99640.75;;;16.75;100.00
4022;BME280;2025;48.260;16.432;2022-07-29T03:50:46;99651.31;;;16.75;100.00
4022;BME280;2025;48.260;16.432;2022-07-29T03:53:16;99645.16;;;16.74;100.00
4022;BME280;2025;48.260;16.432;2022-07-29T03:55:45;99652.16;;;16.78;100.00
4022;BME280;2025;48.260;16.432;2022-07-29T03:58:14;99639.75;;;16.80;100.00
4022;BME280;2025;48.260;16.432;2022-07-29T04:00:42;99644.06;;;16.86;100.00
4022;BME280;2025;48.260;16.432;2022-07-29T04:03:09;99647.59;;;16.86;100.00
4022;BME280;2025;48.260;16.432;2022-07-29T04:05:36;99649.38;;;16.84;100.00
4022;BME280;2025;48.260;16.432;2022-07-29T04:08:04;99650.25;;;16.85;100.00
4022;BME280;2025;48.260;16.432;2022-07-29T04:10:33;99657.25;;;16.89;100.00
4022;BME280;2025;48.260;16.432;2022-07-29T04:13:00;99658.06;;;16.92;100.00
4022;BME280;2025;48.260;16.432;2022-07-29T04:15:27;99654.44;;;16.96;100.00
4022;BME280;2025;48.260;16.432;2022-07-29T04:17:54;99651.66;;;17.04;100.00
4022;BME280;2025;48.260;16.432;2022-07-29T04:20:21;99651.34;;;17.19;100.00
4022;BME280;2025;48.260;16.432;2022-07-29T04:22:48;99644.19;;;17.24;100.00
4022;BME280;2025;48.260;16.432;2022-07-29T04:25:15;99653.78;;;17.30;100.00
4022;BME280;2025;48.260;16.432;2022-07-29T04:27:44;99658.88;;;17.42;100.00
4022;BME280;2025;48.260;16.432;2022-07-29T04:30:24;99656.88;;;17.53;100.00
4022;BME280;2025;48.260;16.432;2022-07-29T04:32:54;99666.22;;;17.71;100.00
4022;BME280;2025;48.260;16.432;2022-07-29T04:35:24;99671.25;;;17.83;100.00
4022;BME280;2025;48.260;16.432;2022-07-29T04:37:53;99677.19;;;17.94;100.00
4022;BME280;2025;48.260;16.432;2022-07-29T04:40:21;99676.72;;;18.14;100.00
4022;BME280;2025;48.260;16.432;2022-07-29T04:42:52;99676.44;;;18.26;100.00
4022;BME280;2025;48.260;16.432;2022-07-29T04:45:23;99677.97;;;18.37;100.00
4022;BME280;2025;48.260;16.432;2022-07-29T04:47:52;99679.38;;;18.51;100.00
4022;BME280;2025;48.260;16.432;2022-07-29T04:50:20;99687.03;;;18.64;100.00
4022;BME280;2025;48.260;16.432;2022-07-29T04:52:50;99700.84;;;18.78;100.00
4022;BME280;2025;48.260;16.432;2022-07-29T04:55:17;99696.78;;;18.97;100.00
4022;BME280;2025;48.260;16.432;2022-07-29T04:57:44;99695.34;;;19.19;100.00
4022;BME280;2025;48.260;16.432;2022-07-29T05:00:18;99693.88;;;19.40;100.00
4022;BME280;2025;48.260;16.432;2022-07-29T05:02:45;99692.59;;;19.55;100.00
4022;BME280;2025;48.260;16.432;2022-07-29T05:05:12;99692.38;;;19.63;100.00
4022;BME280;2025;48.260;16.432;2022-07-29T05:07:44;99697.28;;;19.76;100.00
4022;BME280;2025;48.260;16.432;2022-07-29T05:10:12;99687.28;;;19.84;100.00
4022;BME280;2025;48.260;16.432;2022-07-29T05:12:42;99694.97;;;19.94;100.00
4022;BME280;2025;48.260;16.432;2022-07-29T05:15:15;99699.78;;;20.10;100.00
4022;BME280;2025;48.260;16.432;2022-07-29T05:17:53;99702.91;;;20.23;100.00
4022;BME280;2025;48.260;16.432;2022-07-29T05:20:33;99712.13;;;20.41;100.00
4022;BME280;2025;48.260;16.432;2022-07-29T05:23:08;99712.59;;;20.54;100.00
4022;BME280;2025;48.260;16.432;2022-07-29T05:25:48;99715.38;;;20.77;100.00
4022;BME280;2025;48.260;16.432;2022-07-29T05:28:28;99713.09;;;20.93;100.00
4022;BME280;2025;48.260;16.432;2022-07-29T05:31:05;99699.84;;;21.16;100.00
4022;BME280;2025;48.260;16.432;2022-07-29T05:33:43;99707.22;;;21.34;100.00
4022;BME280;2025;48.260;16.432;2022-07-29T05:36:21;99703.34;;;21.43;100.00
4022;BME280;2025;48.260;16.432;2022-07-29T05:38:48;99706.16;;;21.63;100.00
4022;BME280;2025;48.260;16.432;2022-07-29T05:41:19;99696.53;;;21.83;100.00
4022;BME280;2025;48.260;16.432;2022-07-29T05:43:52;99694.44;;;21.91;100.00
4022;BME280;2025;48.260;16.432;2022-07-29T05:46:27;99703.78;;;22.02;100.00
4022;BME280;2025;48.260;16.432;2022-07-29T05:48:58;99704.28;;;22.12;100.00
4022;BME280;2025;48.260;16.432;2022-07-29T05:51:25;99711.81;;;22.24;100.00
4022;BME280;2025;48.260;16.432;2022-07-29T05:53:56;99713.56;;;22.25;100.00
4022;BME280;2025;48.260;16.432;2022-07-29T05:56:23;99714.63;;;22.43;100.00
4022;BME280;2025;48.260;16.432;2022-07-29T05:58:51;99708.97;;;22.51;100.00
4022;BME280;2025;48.260;16.432;2022-07-29T06:01:44;99708.50;;;22.63;100.00
4022;BME280;2025;48.260;16.432;2022-07-29T06:04:44;99715.78;;;22.81;100.00
4022;BME280;2025;48.260;16.432;2022-07-29T06:07:24;99718.53;;;23.00;100.00
4022;BME280;2025;48.260;16.432;2022-07-29T06:09:58;99726.50;;;23.22;100.00
4022;BME280;2025;48.260;16.432;2022-07-29T06:12:29;99720.53;;;23.35;100.00
4022;BME280;2025;48.260;16.432;2022-07-29T06:14:59;99720.72;;;23.51;100.00
4022;BME280;2025;48.260;16.432;2022-07-29T06:17:26;99714.19;;;23.58;100.00
4022;BME280;2025;48.260;16.432;2022-07-29T06:19:54;99723.41;;;23.72;100.00
4022;BME280;2025;48.260;16.432;2022-07-29T06:22:21;99726.16;;;23.89;100.00
4022;BME280;2025;48.260;16.432;2022-07-29T06:24:52;99722.34;;;23.94;100.00
4022;BME280;2025;48.260;16.432;2022-07-29T06:27:19;99719.44;;;23.99;100.00
4022;BME280;2025;48.260;16.432;2022-07-29T06:29:46;99729.56;;;24.11;100.00
4022;BME280;2025;48.260;16.432;2022-07-29T06:32:13;99731.59;;;24.06;100.00
4022;BME280;2025;48.260;16.432;2022-07-29T06:34:40;99734.19;;;24.08;100.00
4022;BME280;2025;48.260;16.432;2022-07-29T06:37:08;99729.69;;;24.28;100.00
4022;BME280;2025;48.260;16.432;2022-07-29T06:39:35;99730.34;;;24.34;100.00
4022;BME280;2025;48.260;16.432;2022-07-29T06:42:06;99732.81;;;24.38;100.00
4022;BME280;2025;48.260;16.432;2022-07-29T06:44:33;99734.16;;;24.47;100.00
4022;BME280;2025;48.260;16.432;2022-07-29T06:47:00;99738.47;;;24.68;100.00
4022;BME280;2025;48.260;16.432;2022-07-29T06:49:27;99742.09;;;24.67;100.00
4022;BME280;2025;48.260;16.432;2022-07-29T06:51:56;99735.69;;;24.52;100.00
4022;BME280;2025;48.260;16.432;2022-07-29T06:54:27;99726.06;;;24.48;100.00
4022;BME280;2025;48.260;16.432;2022-07-29T06:56:54;99735.72;;;24.70;100.00
4022;BME280;2025;48.260;16.432;2022-07-29T06:59:24;99740.72;;;24.58;100.00
4022;BME280;2025;48.260;16.432;2022-07-29T07:01:51;99737.81;;;24.63;100.00
4022;BME280;2025;48.260;16.432;2022-07-29T07:04:18;99738.91;;;24.59;100.00
4022;BME280;2025;48.260;16.432;2022-07-29T07:06:45;99738.44;;;24.51;100.00
4022;BME280;2025;48.260;16.432;2022-07-29T07:09:12;99744.00;;;24.46;100.00
4022;BME280;2025;48.260;16.432;2022-07-29T07:11:40;99751.03;;;24.49;100.00
4022;BME280;2025;48.260;16.432;2022-07-29T07:14:07;99747.56;;;24.47;100.00
4022;BME280;2025;48.260;16.432;2022-07-29T07:16:34;99741.69;;;24.39;100.00
4022;BME280;2025;48.260;16.432;2022-07-29T07:19:01;99739.16;;;24.36;100.00
4022;BME280;2025;48.260;16.432;2022-07-29T07:21:28;99739.75;;;24.42;100.00
4022;BME280;2025;48.260;16.432;2022-07-29T07:23:55;99743.28;;;24.43;100.00
4022;BME280;2025;48.260;16.432;2022-07-29T07:26:22;99743.13;;;24.46;100.00
4022;BME280;2025;48.260;16.432;2022-07-29T07:28:51;99745.81;;;24.46;100.00
4022;BME280;2025;48.260;16.432;2022-07-29T07:31:20;99751.25;;;24.44;100.00
4022;BME280;2025;48.260;16.432;2022-07-29T07:33:47;99751.03;;;24.49;100.00
4022;BME280;2025;48.260;16.432;2022-07-29T07:36:24;99752.91;;;24.47;100.00
4022;BME280;2025;48.260;16.432;2022-07-29T07:38:53;99754.78;;;24.45;100.00
4022;BME280;2025;48.260;16.432;2022-07-29T07:41:20;99754.06;;;24.60;100.00
4022;BME280;2025;48.260;16.432;2022-07-29T07:43:47;99752.72;;;24.69;100.00
4022;BME280;2025;48.260;16.432;2022-07-29T07:46:18;99753.84;;;24.82;100.00
4022;BME280;2025;48.260;16.432;2022-07-29T07:48:49;99749.78;;;24.92;100.00
4022;BME280;2025;48.260;16.432;2022-07-29T07:51:19;99756.59;;;24.99;100.00
4022;BME280;2025;48.260;16.432;2022-07-29T07:53:46;99759.19;;;25.01;100.00
4022;BME280;2025;48.260;16.432;2022-07-29T07:56:16;99759.59;;;25.10;100.00
4022;BME280;2025;48.260;16.432;2022-07-29T07:58:43;99764.25;;;25.24;100.00
4022;BME280;2025;48.260;16.432;2022-07-29T08:01:10;99765.44;;;25.36;100.00
4022;BME280;2025;48.260;16.432;2022-07-29T08:03:39;99761.78;;;25.54;100.00
4022;BME280;2025;48.260;16.432;2022-07-29T08:06:11;99763.34;;;25.58;100.00
4022;BME280;2025;48.260;16.432;2022-07-29T08:08:44;99764.94;;;25.79;100.00
4022;BME280;2025;48.260;16.432;2022-07-29T08:11:10;99763.31;;;25.93;100.00
4022;BME280;2025;48.260;16.432;2022-07-29T08:13:40;99762.25;;;25.79;100.00
4022;BME280;2025;48.260;16.432;2022-07-29T08:16:08;99765.34;;;25.72;100.00
4022;BME280;2025;48.260;16.432;2022-07-29T08:18:46;99760.78;;;25.89;100.00
4022;BME280;2025;48.260;16.432;2022-07-29T08:21:14;99766.38;;;25.69;100.00
4022;BME280;2025;48.260;16.432;2022-07-29T08:23:43;99765.41;;;25.70;100.00
4022;BME280;2025;48.260;16.432;2022-07-29T08:26:16;99764.84;;;26.14;100.00
4022;BME280;2025;48.260;16.432;2022-07-29T08:28:49;99770.97;;;26.33;100.00
4022;BME280;2025;48.260;16.432;2022-07-29T08:31:21;99776.53;;;26.46;100.00
4022;BME280;2025;48.260;16.432;2022-07-29T08:33:50;99771.72;;;26.19;100.00
4022;BME280;2025;48.260;16.432;2022-07-29T08:36:35;99763.03;;;26.14;100.00
4022;BME280;2025;48.260;16.432;2022-07-29T08:39:05;99762.19;;;26.30;100.00
4022;BME280;2025;48.260;16.432;2022-07-29T08:41:58;99761.97;;;26.50;100.00
4022;BME280;2025;48.260;16.432;2022-07-29T08:44:39;99768.34;;;26.32;100.00
4022;BME280;2025;48.260;16.432;2022-07-29T08:47:37;99762.38;;;26.58;100.00
4022;BME280;2025;48.260;16.432;2022-07-29T08:50:35;99759.63;;;26.60;100.00
4022;BME280;2025;48.260;16.432;2022-07-29T08:53:08;99770.72;;;26.53;100.00
4022;BME280;2025;48.260;16.432;2022-07-29T08:55:55;99765.34;;;26.69;100.00
4022;BME280;2025;48.260;16.432;2022-07-29T08:59:02;99761.84;;;26.99;100.00
4022;BME280;2025;48.260;16.432;2022-07-29T09:01:37;99767.81;;;27.04;100.00
4022;BME280;2025;48.260;16.432;2022-07-29T09:04:14;99760.34;;;27.09;100.00
4022;BME280;2025;48.260;16.432;2022-07-29T09:06:48;99762.63;;;26.85;100.00
4022;BME280;2025;48.260;16.432;2022-07-29T09:12:24;99760.84;;;27.15;100.00
4022;BME280;2025;48.260;16.432;2022-07-29T09:15:20;99753.00;;;27.71;100.00
4022;BME280;2025;48.260;16.432;2022-07-29T09:17:55;99755.84;;;27.54;100.00
4022;BME280;2025;48.260;16.432;2022-07-29T09:20:25;99754.56;;;27.45;100.00
4022;BME280;2025;48.260;16.432;2022-07-29T09:23:16;99758.13;;;27.45;100.00
4022;BME280;2025;48.260;16.432;2022-07-29T09:25:43;99752.09;;;27.12;100.00
4022;BME280;2025;48.260;16.432;2022-07-29T09:28:15;99755.41;;;27.31;100.00
4022;BME280;2025;48.260;16.432;2022-07-29T09:30:59;99749.78;;;27.50;100.00
4022;BME280;2025;48.260;16.432;2022-07-29T09:33:34;99751.31;;;27.54;100.00
4022;BME280;2025;48.260;16.432;2022-07-29T09:36:08;99750.47;;;27.54;100.00
4022;BME280;2025;48.260;16.432;2022-07-29T09:38:57;99753.91;;;27.56;100.00
4022;BME280;2025;48.260;16.432;2022-07-29T09:41:24;99747.72;;;27.69;100.00
4022;BME280;2025;48.260;16.432;2022-07-29T09:43:59;99746.50;;;27.89;100.00
4022;BME280;2025;48.260;16.432;2022-07-29T09:46:27;99747.53;;;27.72;100.00
4022;BME280;2025;48.260;16.432;2022-07-29T09:49:11;99749.97;;;27.77;100.00
4022;BME280;2025;48.260;16.432;2022-07-29T09:51:48;99750.53;;;28.10;100.00
4022;BME280;2025;48.260;16.432;2022-07-29T09:54:43;99751.78;;;28.33;100.00
4022;BME280;2025;48.260;16.432;2022-07-29T09:57:26;99757.50;;;28.56;100.00
4022;BME280;2025;48.260;16.432;2022-07-29T10:00:00;99749.81;;;28.50;100.00
4022;BME280;2025;48.260;16.432;2022-07-29T10:02:34;99741.88;;;28.34;100.00
4022;BME280;2025;48.260;16.432;2022-07-29T10:05:18;99743.78;;;28.18;97.90
4022;BME280;2025;48.260;16.432;2022-07-29T10:07:56;99743.72;;;28.60;100.00
4022;BME280;2025;48.260;16.432;2022-07-29T10:10:26;99749.41;;;28.56;95.26
4022;BME280;2025;48.260;16.432;2022-07-29T10:13:05;99743.50;;;28.22;98.13
4022;BME280;2025;48.260;16.432;2022-07-29T10:15:37;99750.31;;;28.42;99.06
4022;BME280;2025;48.260;16.432;2022-07-29T10:18:07;99736.28;;;28.37;97.57
4022;BME280;2025;48.260;16.432;2022-07-29T10:20:53;99732.03;;;28.47;98.72
4022;BME280;2025;48.260;16.432;2022-07-29T10:23:21;99728.25;;;28.77;97.70
4022;BME280;2025;48.260;16.432;2022-07-29T10:25:55;99728.78;;;28.69;100.00
4022;BME280;2025;48.260;16.432;2022-07-29T10:28:34;99728.13;;;28.65;99.36
4022;BME280;2025;48.260;16.432;2022-07-29T10:31:05;99737.75;;;28.28;95.57
4022;BME280;2025;48.260;16.432;2022-07-29T10:33:47;99733.59;;;28.37;99.33
4022;BME280;2025;48.260;16.432;2022-07-29T10:36:41;99735.06;;;28.55;96.89
4022;BME280;2025;48.260;16.432;2022-07-29T10:39:21;99730.25;;;28.60;98.30
4022;BME280;2025;48.260;16.432;2022-07-29T10:42:15;99728.44;;;29.40;93.65
4022;BME280;2025;48.260;16.432;2022-07-29T10:44:51;99722.25;;;29.78;95.89
4022;BME280;2025;48.260;16.432;2022-07-29T10:47:23;99716.66;;;29.28;91.25
4022;BME280;2025;48.260;16.432;2022-07-29T10:49:56;99716.06;;;29.88;100.00
4022;BME280;2025;48.260;16.432;2022-07-29T10:52:53;99723.44;;;29.61;86.99
4022;BME280;2025;48.260;16.432;2022-07-29T10:55:32;99719.06;;;29.46;86.77
4022;BME280;2025;48.260;16.432;2022-07-29T10:58:15;99706.06;;;29.25;92.49
4022;BME280;2025;48.260;16.432;2022-07-29T11:00:45;99703.56;;;29.49;96.27
4022;BME280;2025;48.260;16.432;2022-07-29T11:03:43;99711.41;;;30.16;90.52
4022;BME280;2025;48.260;16.432;2022-07-29T11:10:20;99700.03;;;29.22;91.71
4022;BME280;2025;48.260;16.432;2022-07-29T11:12:49;99692.34;;;28.76;95.24
4022;BME280;2025;48.260;16.432;2022-07-29T11:15:27;99702.06;;;28.52;93.85
4022;BME280;2025;48.260;16.432;2022-07-29T11:18:15;99697.25;;;28.57;96.93
4022;BME280;2025;48.260;16.432;2022-07-29T11:20:43;99689.34;;;28.27;91.93
4022;BME280;2025;48.260;16.432;2022-07-29T11:23:22;99686.34;;;28.17;98.27
4022;BME280;2025;48.260;16.432;2022-07-29T11:26:18;99686.00;;;28.09;94.75
4022;BME280;2025;48.260;16.432;2022-07-29T11:28:57;99688.75;;;28.22;95.88
4022;BME280;2025;48.260;16.432;2022-07-29T11:31:49;99684.38;;;28.48;97.55
4022;BME280;2025;48.260;16.432;2022-07-29T11:34:29;99684.38;;;28.74;93.10
4022;BME280;2025;48.260;16.432;2022-07-29T11:37:18;99675.47;;;28.87;99.44
4022;BME280;2025;48.260;16.432;2022-07-29T11:39:49;99674.22;;;29.18;97.07
4022;BME280;2025;48.260;16.432;2022-07-29T11:42:42;99671.69;;;29.67;94.89
4022;BME280;2025;48.260;16.432;2022-07-29T11:45:12;99673.31;;;29.69;87.40
4022;BME280;2025;48.260;16.432;2022-07-29T11:47:50;99670.34;;;29.98;88.09
4022;BME280;2025;48.260;16.432;2022-07-29T11:50:27;99675.25;;;29.67;87.11
4022;BME280;2025;48.260;16.432;2022-07-29T11:52:54;99667.19;;;29.55;89.57
4022;BME280;2025;48.260;16.432;2022-07-29T11:55:22;99668.88;;;29.43;89.81
4022;BME280;2025;48.260;16.432;2022-07-29T11:57:55;99660.91;;;29.67;95.51
4022;BME280;2025;48.260;16.432;2022-07-29T12:00:27;99666.91;;;29.83;92.00
4022;BME280;2025;48.260;16.432;2022-07-29T12:02:58;99666.53;;;29.51;86.76
4022;BME280;2025;48.260;16.432;2022-07-29T12:05:40;99654.09;;;30.23;90.35
4022;BME280;2025;48.260;16.432;2022-07-29T12:08:10;99649.25;;;30.40;86.50
4022;BME280;2025;48.260;16.432;2022-07-29T12:10:37;99652.56;;;29.83;88.48
4022;BME280;2025;48.260;16.432;2022-07-29T12:13:07;99644.88;;;30.26;96.56
4022;BME280;2025;48.260;16.432;2022-07-29T12:15:34;99646.69;;;30.38;89.98
4022;BME280;2025;48.260;16.432;2022-07-29T12:18:14;99642.47;;;29.97;85.97
4022;BME280;2025;48.260;16.432;2022-07-29T12:20:56;99633.97;;;29.78;85.52
4022;BME280;2025;48.260;16.432;2022-07-29T12:23:24;99636.66;;;30.27;88.33
4022;BME280;2025;48.260;16.432;2022-07-29T12:25:51;99636.91;;;30.24;84.39
4022;BME280;2025;48.260;16.432;2022-07-29T12:28:18;99644.59;;;30.18;85.81
4022;BME280;2025;48.260;16.432;2022-07-29T12:30:48;99644.41;;;30.08;93.37
4022;BME280;2025;48.260;16.432;2022-07-29T12:33:20;99629.38;;;29.67;86.88
4022;BME280;2025;48.260;16.432;2022-07-29T12:35:49;99637.53;;;29.41;90.82
4022;BME280;2025;48.260;16.432;2022-07-29T12:38:29;99643.56;;;29.95;88.00
4022;BME280;2025;48.260;16.432;2022-07-29T12:40:56;99634.88;;;29.66;91.43
4022;BME280;2025;48.260;16.432;2022-07-29T12:43:26;99633.38;;;30.11;95.03
4022;BME280;2025;48.260;16.432;2022-07-29T12:45:55;99632.13;;;30.76;100.00
4022;BME280;2025;48.260;16.432;2022-07-29T12:48:34;99632.44;;;30.95;89.74
4022;BME280;2025;48.260;16.432;2022-07-29T12:51:03;99627.19;;;30.22;90.87
4022;BME280;2025;48.260;16.432;2022-07-29T12:53:32;99624.63;;;29.58;95.92
4022;BME280;2025;48.260;16.432;2022-07-29T12:56:00;99623.97;;;29.55;97.28
4022;BME280;2025;48.260;16.432;2022-07-29T12:58:37;99624.53;;;28.82;99.57
4022;BME280;2025;48.260;16.432;2022-07-29T13:01:10;99629.72;;;28.46;100.00
4022;BME280;2025;48.260;16.432;2022-07-29T13:03:47;99626.97;;;28.33;100.00
4022;BME280;2025;48.260;16.432;2022-07-29T13:06:35;99621.59;;;28.33;100.00
4022;BME280;2025;48.260;16.432;2022-07-29T13:09:09;99619.97;;;28.16;100.00
4022;BME280;2025;48.260;16.432;2022-07-29T13:11:42;99618.41;;;27.99;100.00
4022;BME280;2025;48.260;16.432;2022-07-29T13:14:20;99614.13;;;28.09;100.00
4022;BME280;2025;48.260;16.432;2022-07-29T13:17:01;99617.88;;;28.07;100.00
4022;BME280;2025;48.260;16.432;2022-07-29T13:19:42;99614.28;;;27.94;100.00
4022;BME280;2025;48.260;16.432;2022-07-29T13:22:14;99618.53;;;27.84;100.00
4022;BME280;2025;48.260;16.432;2022-07-29T13:24:48;99621.22;;;27.69;100.00
4022;BME280;2025;48.260;16.432;2022-07-29T13:27:16;99608.50;;;27.57;100.00
4022;BME280;2025;48.260;16.432;2022-07-29T13:29:43;99611.69;;;27.35;100.00
4022;BME280;2025;48.260;16.432;2022-07-29T13:32:10;99603.81;;;27.32;100.00
4022;BME280;2025;48.260;16.432;2022-07-29T13:34:42;99611.50;;;27.24;100.00
4022;BME280;2025;48.260;16.432;2022-07-29T13:37:09;99605.63;;;27.03;100.00